Weather at A L Mangham Jr. Regional Airport

Public forecast

Using degrees Fahrenheit for public forecast. Weather courtesy of forecast.io.

Current aviation weather report (METAR) for A L Mangham Jr. Regional Airport

Retrieved 2020/09/24 03:56 UTC (20 minutes ago):

KOCH 240356Z AUTO 34007KT 10SM OVC006 19/18 A2989 RMK AO2 SLP122 P0001 T01940183

Closest aviation forecast (TAF) to A L Mangham Jr. Regional Airport

Closest forecast is Angelina County Airport, 20.8 nm (38.4 km) S. Retrieved 2020-09-24 00:42 UTC (4 hours ago):

TAF KLFK 232340Z 2400/2424 33007KT P6SM OVC009 FM240800 34004KT 5SM BR OVC004 FM241500 33005KT P6SM SCT009 BKN015 FM241800 33006KT P6SM BKN025 FM242100 34007KT P6SM BKN035